sensor_id;sensor_type;location;lat;lon;timestamp;pressure;altitude;pressure_sealevel;temperature;humidity
72024;BME280;59889;50.700;5.440;2022-12-18T00:01:32;101075.81;;;16.90;30.57
72024;BME280;59889;50.700;5.440;2022-12-18T00:03:56;101075.20;;;17.11;30.36
72024;BME280;59889;50.700;5.440;2022-12-18T00:06:22;101077.29;;;17.36;30.34
72024;BME280;59889;50.700;5.440;2022-12-18T00:08:46;101080.34;;;17.23;30.23
72024;BME280;59889;50.700;5.440;2022-12-18T00:11:13;101078.65;;;17.26;30.43
72024;BME280;59889;50.700;5.440;2022-12-18T00:13:37;101075.81;;;17.34;30.36
72024;BME280;59889;50.700;5.440;2022-12-18T00:16:02;101072.00;;;17.36;30.32
72024;BME280;59889;50.700;5.440;2022-12-18T00:18:27;101069.84;;;17.49;30.25
72024;BME280;59889;50.700;5.440;2022-12-18T00:20:52;101078.31;;;17.13;30.31
72024;BME280;59889;50.700;5.440;2022-12-18T00:23:18;101074.80;;;17.33;30.15
72024;BME280;59889;50.700;5.440;2022-12-18T00:25:43;101070.46;;;17.20;30.28
72024;BME280;59889;50.700;5.440;2022-12-18T00:28:08;101069.51;;;16.98;30.53
72024;BME280;59889;50.700;5.440;2022-12-18T00:30:34;101072.18;;;17.11;30.42
72024;BME280;59889;50.700;5.440;2022-12-18T00:32:59;101075.87;;;17.35;30.39
72024;BME280;59889;50.700;5.440;2022-12-18T00:35:24;101076.45;;;17.35;30.37
72024;BME280;59889;50.700;5.440;2022-12-18T00:37:50;101082.39;;;17.02;30.49
72024;BME280;59889;50.700;5.440;2022-12-18T00:40:15;101087.70;;;17.36;30.42
72024;BME280;59889;50.700;5.440;2022-12-18T00:42:40;101087.17;;;17.04;30.46
72024;BME280;59889;50.700;5.440;2022-12-18T00:45:07;101079.52;;;17.28;30.47
72024;BME280;59889;50.700;5.440;2022-12-18T00:47:31;101073.00;;;17.41;30.36
72024;BME280;59889;50.700;5.440;2022-12-18T00:49:57;101063.57;;;17.34;30.40
72024;BME280;59889;50.700;5.440;2022-12-18T00:52:22;101054.28;;;17.35;30.41
72024;BME280;59889;50.700;5.440;2022-12-18T00:54:47;101050.06;;;17.12;30.41
72024;BME280;59889;50.700;5.440;2022-12-18T00:57:12;101056.28;;;17.28;30.51
72024;BME280;59889;50.700;5.440;2022-12-18T00:59:37;101055.20;;;17.28;30.49
72024;BME280;59889;50.700;5.440;2022-12-18T01:02:02;101054.70;;;17.06;30.46
72024;BME280;59889;50.700;5.440;2022-12-18T01:04:28;101050.85;;;17.10;30.68
72024;BME280;59889;50.700;5.440;2022-12-18T01:06:53;101044.45;;;17.31;30.46
72024;BME280;59889;50.700;5.440;2022-12-18T01:09:18;101040.74;;;17.61;30.41
72024;BME280;59889;50.700;5.440;2022-12-18T01:11:43;101036.81;;;16.96;30.55
72024;BME280;59889;50.700;5.440;2022-12-18T01:14:09;101030.79;;;17.01;30.51
72024;BME280;59889;50.700;5.440;2022-12-18T01:16:35;101027.56;;;17.13;30.62
72024;BME280;59889;50.700;5.440;2022-12-18T01:19:00;101024.43;;;17.19;30.55
72024;BME280;59889;50.700;5.440;2022-12-18T01:21:25;101027.98;;;17.22;30.57
72024;BME280;59889;50.700;5.440;2022-12-18T01:23:52;101031.79;;;17.41;30.59
72024;BME280;59889;50.700;5.440;2022-12-18T01:26:16;101038.65;;;16.89;30.65
72024;BME280;59889;50.700;5.440;2022-12-18T01:28:42;101043.96;;;17.02;30.53
72024;BME280;59889;50.700;5.440;2022-12-18T01:31:15;101043.17;;;17.25;30.54
72024;BME280;59889;50.700;5.440;2022-12-18T01:33:32;101045.27;;;17.14;30.62
72024;BME280;59889;50.700;5.440;2022-12-18T01:35:57;101039.09;;;17.30;30.44
72024;BME280;59889;50.700;5.440;2022-12-18T01:38:22;101032.24;;;17.22;30.55
72024;BME280;59889;50.700;5.440;2022-12-18T01:40:48;101027.24;;;16.95;30.53
72024;BME280;59889;50.700;5.440;2022-12-18T01:43:13;101031.66;;;17.08;30.68
72024;BME280;59889;50.700;5.440;2022-12-18T01:45:38;101030.34;;;17.20;30.57
72024;BME280;59889;50.700;5.440;2022-12-18T01:48:06;101032.58;;;17.10;30.68
72024;BME280;59889;50.700;5.440;2022-12-18T01:50:31;101030.17;;;17.34;30.43
72024;BME280;59889;50.700;5.440;2022-12-18T01:52:55;101025.76;;;17.09;30.41
72024;BME280;59889;50.700;5.440;2022-12-18T01:55:21;101020.33;;;17.59;30.41
72024;BME280;59889;50.700;5.440;2022-12-18T01:57:44;101020.67;;;16.96;30.54
72024;BME280;59889;50.700;5.440;2022-12-18T02:00:12;101025.39;;;17.01;30.51
72024;BME280;59889;50.700;5.440;2022-12-18T02:02:34;101020.45;;;17.03;30.47
72024;BME280;59889;50.700;5.440;2022-12-18T02:05:00;101018.94;;;17.34;30.41
72024;BME280;59889;50.700;5.440;2022-12-18T02:07:32;101014.19;;;17.22;30.50
72024;BME280;59889;50.700;5.440;2022-12-18T02:09:53;101010.78;;;17.08;30.43
72024;BME280;59889;50.700;5.440;2022-12-18T02:12:19;101011.00;;;17.18;30.54
72024;BME280;59889;50.700;5.440;2022-12-18T02:14:43;101013.08;;;17.15;30.61
72024;BME280;59889;50.700;5.440;2022-12-18T02:17:09;101011.18;;;17.10;30.64
72024;BME280;59889;50.700;5.440;2022-12-18T02:19:39;101011.80;;;17.34;30.66
72024;BME280;59889;50.700;5.440;2022-12-18T02:22:13;101013.25;;;17.15;30.61
72024;BME280;59889;50.700;5.440;2022-12-18T02:24:29;101012.76;;;17.29;30.47
72024;BME280;59889;50.700;5.440;2022-12-18T02:26:49;101009.52;;;16.84;30.65
72024;BME280;59889;50.700;5.440;2022-12-18T02:29:15;101011.34;;;17.05;30.69
72024;BME280;59889;50.700;5.440;2022-12-18T02:31:43;101007.06;;;17.41;30.55
72024;BME280;59889;50.700;5.440;2022-12-18T02:34:04;101004.99;;;17.26;30.48
72024;BME280;59889;50.700;5.440;2022-12-18T02:36:29;101002.97;;;17.15;30.61
72024;BME280;59889;50.700;5.440;2022-12-18T02:38:55;101002.84;;;17.16;30.56
72024;BME280;59889;50.700;5.440;2022-12-18T02:41:23;100996.35;;;17.02;30.47
72024;BME280;59889;50.700;5.440;2022-12-18T02:43:47;100987.36;;;17.03;30.46
72024;BME280;59889;50.700;5.440;2022-12-18T02:46:25;100980.85;;;17.08;30.64
72024;BME280;59889;50.700;5.440;2022-12-18T02:48:35;100980.44;;;16.99;30.47
72024;BME280;59889;50.700;5.440;2022-12-18T02:51:06;100978.89;;;17.07;30.65
72024;BME280;59889;50.700;5.440;2022-12-18T02:53:30;100973.86;;;16.86;30.61
72024;BME280;59889;50.700;5.440;2022-12-18T02:55:58;100972.86;;;16.77;30.70
72024;BME280;59889;50.700;5.440;2022-12-18T02:58:19;100965.28;;;17.08;30.62
72024;BME280;59889;50.700;5.440;2022-12-18T03:00:43;100960.51;;;16.76;30.48
72024;BME280;59889;50.700;5.440;2022-12-18T03:03:09;100956.89;;;17.15;30.55
72024;BME280;59889;50.700;5.440;2022-12-18T03:05:36;100958.68;;;17.07;30.62
72024;BME280;59889;50.700;5.440;2022-12-18T03:07:59;100953.65;;;17.27;30.44
72024;BME280;59889;50.700;5.440;2022-12-18T03:10:27;100960.71;;;17.06;30.42
72024;BME280;59889;50.700;5.440;2022-12-18T03:12:52;100962.75;;;17.13;30.57
72024;BME280;59889;50.700;5.440;2022-12-18T03:15:16;100958.77;;;17.16;30.51
72024;BME280;59889;50.700;5.440;2022-12-18T03:17:41;100961.00;;;17.05;30.64
72024;BME280;59889;50.700;5.440;2022-12-18T03:20:07;100959.89;;;17.04;30.67
72024;BME280;59889;50.700;5.440;2022-12-18T03:22:30;100958.25;;;17.06;30.38
72024;BME280;59889;50.700;5.440;2022-12-18T03:24:55;100956.12;;;17.15;30.53
72024;BME280;59889;50.700;5.440;2022-12-18T03:27:20;100957.31;;;17.07;30.60
72024;BME280;59889;50.700;5.440;2022-12-18T03:29:47;100956.99;;;16.77;30.69
72024;BME280;59889;50.700;5.440;2022-12-18T03:32:12;100959.94;;;17.26;30.42
72024;BME280;59889;50.700;5.440;2022-12-18T03:34:35;100959.74;;;17.34;30.56
72024;BME280;59889;50.700;5.440;2022-12-18T03:37:01;100961.47;;;17.01;30.43
72024;BME280;59889;50.700;5.440;2022-12-18T03:39:25;100960.69;;;17.19;30.46
72024;BME280;59889;50.700;5.440;2022-12-18T03:41:55;100955.49;;;16.88;30.56
72024;BME280;59889;50.700;5.440;2022-12-18T03:44:21;100950.90;;;16.96;30.68
72024;BME280;59889;50.700;5.440;2022-12-18T03:46:43;100944.43;;;16.91;30.50
72024;BME280;59889;50.700;5.440;2022-12-18T03:49:10;100944.43;;;16.85;30.57
72024;BME280;59889;50.700;5.440;2022-12-18T03:51:37;100946.83;;;17.07;30.54
72024;BME280;59889;50.700;5.440;2022-12-18T03:53:58;100948.58;;;17.09;30.55
72024;BME280;59889;50.700;5.440;2022-12-18T03:56:24;100945.09;;;17.06;30.59
72024;BME280;59889;50.700;5.440;2022-12-18T03:58:48;100944.94;;;16.68;30.72
72024;BME280;59889;50.700;5.440;2022-12-18T04:01:13;100943.17;;;17.35;30.53
72024;BME280;59889;50.700;5.440;2022-12-18T04:03:37;100946.16;;;17.12;30.50
72024;BME280;59889;50.700;5.440;2022-12-18T04:06:03;100951.31;;;17.25;30.65
72024;BME280;59889;50.700;5.440;2022-12-18T04:08:27;100946.86;;;17.17;30.47
72024;BME280;59889;50.700;5.440;2022-12-18T04:10:52;100952.45;;;16.96;30.43
72024;BME280;59889;50.700;5.440;2022-12-18T04:13:22;100953.94;;;17.06;30.61
72024;BME280;59889;50.700;5.440;2022-12-18T04:15:42;100954.21;;;16.78;30.60
72024;BME280;59889;50.700;5.440;2022-12-18T04:18:08;100955.93;;;17.27;30.61
72024;BME280;59889;50.700;5.440;2022-12-18T04:20:33;100959.90;;;17.05;30.61
72024;BME280;59889;50.700;5.440;2022-12-18T04:22:58;100961.76;;;17.00;30.66
72024;BME280;59889;50.700;5.440;2022-12-18T04:25:24;100961.80;;;17.16;30.47
72024;BME280;59889;50.700;5.440;2022-12-18T04:27:49;100962.53;;;17.01;30.64
72024;BME280;59889;50.700;5.440;2022-12-18T04:30:14;100962.17;;;17.07;30.57
72024;BME280;59889;50.700;5.440;2022-12-18T04:32:39;100954.93;;;16.81;30.58
72024;BME280;59889;50.700;5.440;2022-12-18T04:35:05;100950.27;;;17.03;30.57
72024;BME280;59889;50.700;5.440;2022-12-18T04:37:30;100948.24;;;17.01;30.63
72024;BME280;59889;50.700;5.440;2022-12-18T04:39:55;100938.78;;;17.01;30.64
72024;BME280;59889;50.700;5.440;2022-12-18T04:42:20;100934.51;;;17.36;30.49
72024;BME280;59889;50.700;5.440;2022-12-18T04:44:45;100934.02;;;17.22;30.38
72024;BME280;59889;50.700;5.440;2022-12-18T04:47:10;100937.07;;;17.22;30.35
72024;BME280;59889;50.700;5.440;2022-12-18T04:49:35;100937.80;;;17.36;30.46
72024;BME280;59889;50.700;5.440;2022-12-18T04:52:01;100935.87;;;16.97;30.63
72024;BME280;59889;50.700;5.440;2022-12-18T04:54:26;100927.05;;;17.28;30.53
72024;BME280;59889;50.700;5.440;2022-12-18T04:56:52;100927.52;;;16.89;30.44
72024;BME280;59889;50.700;5.440;2022-12-18T04:59:17;100938.61;;;17.02;30.55
72024;BME280;59889;50.700;5.440;2022-12-18T05:01:42;100944.23;;;16.82;30.50
72024;BME280;59889;50.700;5.440;2022-12-18T05:04:08;100942.24;;;17.20;30.35
72024;BME280;59889;50.700;5.440;2022-12-18T05:06:33;100943.14;;;17.37;30.43
72024;BME280;59889;50.700;5.440;2022-12-18T05:08:58;100939.99;;;17.12;30.44
72024;BME280;59889;50.700;5.440;2022-12-18T05:11:23;100945.84;;;16.98;30.56
72024;BME280;59889;50.700;5.440;2022-12-18T05:13:49;100948.88;;;16.96;30.62
72024;BME280;59889;50.700;5.440;2022-12-18T05:16:14;100952.55;;;16.93;30.60
72024;BME280;59889;50.700;5.440;2022-12-18T05:18:39;100955.61;;;16.87;30.69
72024;BME280;59889;50.700;5.440;2022-12-18T05:21:05;100962.11;;;17.11;30.70
72024;BME280;59889;50.700;5.440;2022-12-18T05:23:30;100962.98;;;17.42;30.35
72024;BME280;59889;50.700;5.440;2022-12-18T05:25:57;100966.36;;;17.34;30.44
72024;BME280;59889;50.700;5.440;2022-12-18T05:28:21;100966.37;;;17.04;30.51
72024;BME280;59889;50.700;5.440;2022-12-18T05:30:48;100966.31;;;17.04;30.47
72024;BME280;59889;50.700;5.440;2022-12-18T05:33:10;100959.34;;;17.21;30.29
72024;BME280;59889;50.700;5.440;2022-12-18T05:35:35;100962.47;;;16.98;30.56
72024;BME280;59889;50.700;5.440;2022-12-18T05:38:01;100960.43;;;16.83;30.42
72024;BME280;59889;50.700;5.440;2022-12-18T05:40:26;100958.91;;;16.91;30.37
72024;BME280;59889;50.700;5.440;2022-12-18T05:42:52;100952.28;;;17.19;30.29
72024;BME280;59889;50.700;5.440;2022-12-18T05:45:17;100950.25;;;17.12;30.39
72024;BME280;59889;50.700;5.440;2022-12-18T05:47:42;100946.81;;;16.85;30.40
72024;BME280;59889;50.700;5.440;2022-12-18T05:50:08;100950.93;;;17.04;30.45
72024;BME280;59889;50.700;5.440;2022-12-18T05:52:32;100942.93;;;16.81;30.41
72024;BME280;59889;50.700;5.440;2022-12-18T05:54:57;100940.20;;;16.89;30.33
72024;BME280;59889;50.700;5.440;2022-12-18T05:57:23;100934.20;;;17.12;30.34
72024;BME280;59889;50.700;5.440;2022-12-18T05:59:48;100940.61;;;17.17;30.30
72024;BME280;59889;50.700;5.440;2022-12-18T06:02:13;100952.17;;;17.28;30.41
72024;BME280;59889;50.700;5.440;2022-12-18T06:04:49;100956.43;;;17.07;30.38
72024;BME280;59889;50.700;5.440;2022-12-18T06:07:03;100954.99;;;17.08;30.37
72024;BME280;59889;50.700;5.440;2022-12-18T06:09:29;100948.22;;;16.97;30.46
72024;BME280;59889;50.700;5.440;2022-12-18T06:11:54;100938.80;;;17.15;30.26
72024;BME280;59889;50.700;5.440;2022-12-18T06:14:19;100935.50;;;17.31;30.33
72024;BME280;59889;50.700;5.440;2022-12-18T06:16:44;100933.58;;;16.78;30.43
72024;BME280;59889;50.700;5.440;2022-12-18T06:19:14;100932.13;;;17.07;30.36
72024;BME280;59889;50.700;5.440;2022-12-18T06:21:34;100931.44;;;17.09;30.34
72024;BME280;59889;50.700;5.440;2022-12-18T06:24:00;100932.92;;;17.07;30.38
72024;BME280;59889;50.700;5.440;2022-12-18T06:26:25;100936.14;;;16.98;30.37
72024;BME280;59889;50.700;5.440;2022-12-18T06:28:50;100940.42;;;17.09;29.21
72024;BME280;59889;50.700;5.440;2022-12-18T06:31:15;100939.58;;;16.92;28.71
72024;BME280;59889;50.700;5.440;2022-12-18T06:33:40;100934.75;;;16.51;28.52
72024;BME280;59889;50.700;5.440;2022-12-18T06:36:08;100937.19;;;16.82;28.01
72024;BME280;59889;50.700;5.440;2022-12-18T06:38:31;100934.00;;;16.65;27.83
72024;BME280;59889;50.700;5.440;2022-12-18T06:40:56;100930.78;;;16.68;27.57
72024;BME280;59889;50.700;5.440;2022-12-18T06:43:21;100931.75;;;16.36;27.34
72024;BME280;59889;50.700;5.440;2022-12-18T06:45:46;100939.19;;;16.52;27.18
72024;BME280;59889;50.700;5.440;2022-12-18T06:48:11;100944.48;;;16.50;27.12
72024;BME280;59889;50.700;5.440;2022-12-18T06:50:36;100946.76;;;16.47;26.93
72024;BME280;59889;50.700;5.440;2022-12-18T06:53:02;100941.91;;;16.43;26.78
72024;BME280;59889;50.700;5.440;2022-12-18T06:55:27;100941.86;;;16.45;26.62
72024;BME280;59889;50.700;5.440;2022-12-18T06:57:53;100939.55;;;16.38;26.44
72024;BME280;59889;50.700;5.440;2022-12-18T07:00:18;100946.14;;;16.64;26.31
72024;BME280;59889;50.700;5.440;2022-12-18T07:02:43;100944.65;;;16.37;26.27
72024;BME280;59889;50.700;5.440;2022-12-18T07:05:08;100943.46;;;16.52;26.16
72024;BME280;59889;50.700;5.440;2022-12-18T07:07:34;100938.81;;;16.29;26.05
72024;BME280;59889;50.700;5.440;2022-12-18T07:09:59;100922.48;;;16.21;26.00
72024;BME280;59889;50.700;5.440;2022-12-18T07:12:24;100920.11;;;16.46;25.92
72024;BME280;59889;50.700;5.440;2022-12-18T07:14:49;100911.04;;;16.17;25.91
72024;BME280;59889;50.700;5.440;2022-12-18T07:17:14;100906.20;;;16.23;25.72
72024;BME280;59889;50.700;5.440;2022-12-18T07:19:49;100899.37;;;16.16;25.71
72024;BME280;59889;50.700;5.440;2022-12-18T07:22:05;100900.74;;;16.16;25.64
72024;BME280;59889;50.700;5.440;2022-12-18T07:24:31;100898.05;;;16.05;25.66
72024;BME280;59889;50.700;5.440;2022-12-18T07:26:56;100896.20;;;16.15;25.51
72024;BME280;59889;50.700;5.440;2022-12-18T07:29:21;100897.62;;;16.42;25.55
72024;BME280;59889;50.700;5.440;2022-12-18T07:31:46;100899.73;;;16.32;25.35
72024;BME280;59889;50.700;5.440;2022-12-18T07:34:12;100899.94;;;16.17;25.39
72024;BME280;59889;50.700;5.440;2022-12-18T07:36:36;100900.81;;;16.61;25.53
72024;BME280;59889;50.700;5.440;2022-12-18T07:39:02;100896.62;;;16.08;25.49
72024;BME280;59889;50.700;5.440;2022-12-18T07:41:28;100895.69;;;16.11;25.53
72024;BME280;59889;50.700;5.440;2022-12-18T07:43:55;100894.77;;;16.21;25.57
72024;BME280;59889;50.700;5.440;2022-12-18T07:46:19;100887.70;;;16.17;25.88
72024;BME280;59889;50.700;5.440;2022-12-18T07:48:44;100880.35;;;16.17;25.72
72024;BME280;59889;50.700;5.440;2022-12-18T07:51:09;100871.61;;;16.13;26.19
72024;BME280;59889;50.700;5.440;2022-12-18T07:53:35;100873.36;;;16.27;26.57
72024;BME280;59889;50.700;5.440;2022-12-18T07:56:02;100871.00;;;16.31;26.98
72024;BME280;59889;50.700;5.440;2022-12-18T07:58:25;100866.83;;;16.24;27.27
72024;BME280;59889;50.700;5.440;2022-12-18T08:00:50;100866.77;;;16.78;27.27
72024;BME280;59889;50.700;5.440;2022-12-18T08:03:15;100869.94;;;16.31;27.50
72024;BME280;59889;50.700;5.440;2022-12-18T08:05:40;100868.46;;;16.22;27.63
72024;BME280;59889;50.700;5.440;2022-12-18T08:08:06;100867.66;;;16.22;27.71
72024;BME280;59889;50.700;5.440;2022-12-18T08:10:31;100865.84;;;16.37;28.10
72024;BME280;59889;50.700;5.440;2022-12-18T08:12:56;100869.34;;;16.18;28.10
72024;BME280;59889;50.700;5.440;2022-12-18T08:15:21;100876.00;;;16.49;28.15
72024;BME280;59889;50.700;5.440;2022-12-18T08:17:46;100881.30;;;16.33;28.19
72024;BME280;59889;50.700;5.440;2022-12-18T08:20:12;100878.66;;;16.25;28.18
72024;BME280;59889;50.700;5.440;2022-12-18T08:22:37;100874.28;;;16.47;28.32
72024;BME280;59889;50.700;5.440;2022-12-18T08:25:02;100873.66;;;16.30;28.27
72024;BME280;59889;50.700;5.440;2022-12-18T08:27:27;100875.24;;;16.19;28.37
72024;BME280;59889;50.700;5.440;2022-12-18T08:29:52;100876.14;;;16.29;28.33
72024;BME280;59889;50.700;5.440;2022-12-18T08:32:17;100870.74;;;16.50;28.51
72024;BME280;59889;50.700;5.440;2022-12-18T08:34:43;100869.74;;;16.33;28.53
72024;BME280;59889;50.700;5.440;2022-12-18T08:37:08;100872.72;;;16.36;28.53
72024;BME280;59889;50.700;5.440;2022-12-18T08:39:33;100873.64;;;16.42;28.58
72024;BME280;59889;50.700;5.440;2022-12-18T08:41:58;100871.76;;;16.37;28.68
72024;BME280;59889;50.700;5.440;2022-12-18T08:44:24;100862.87;;;16.26;28.87
72024;BME280;59889;50.700;5.440;2022-12-18T08:46:49;100854.82;;;16.37;28.83
72024;BME280;59889;50.700;5.440;2022-12-18T08:49:14;100846.15;;;16.22;28.96
72024;BME280;59889;50.700;5.440;2022-12-18T08:51:40;100844.25;;;16.20;28.99
72024;BME280;59889;50.700;5.440;2022-12-18T08:54:06;100844.42;;;16.26;28.97
72024;BME280;59889;50.700;5.440;2022-12-18T08:56:30;100841.96;;;16.70;28.70
72024;BME280;59889;50.700;5.440;2022-12-18T08:58:55;100839.75;;;16.29;28.93
72024;BME280;59889;50.700;5.440;2022-12-18T09:01:21;100836.75;;;16.30;29.08
72024;BME280;59889;50.700;5.440;2022-12-18T09:03:46;100839.18;;;16.29;29.21
72024;BME280;59889;50.700;5.440;2022-12-18T09:06:13;100842.39;;;16.21;29.32
72024;BME280;59889;50.700;5.440;2022-12-18T09:08:36;100836.70;;;16.58;29.26
72024;BME280;59889;50.700;5.440;2022-12-18T09:11:02;100831.64;;;16.41;29.23
72024;BME280;59889;50.700;5.440;2022-12-18T09:13:27;100830.53;;;16.37;29.30
72024;BME280;59889;50.700;5.440;2022-12-18T09:15:54;100819.70;;;16.34;29.36
72024;BME280;59889;50.700;5.440;2022-12-18T09:18:19;100818.47;;;16.33;29.41
72024;BME280;59889;50.700;5.440;2022-12-18T09:20:43;100818.13;;;16.05;29.52
72024;BME280;59889;50.700;5.440;2022-12-18T09:23:09;100819.59;;;16.26;29.56
72024;BME280;59889;50.700;5.440;2022-12-18T09:25:33;100822.96;;;16.30;29.53
72024;BME280;59889;50.700;5.440;2022-12-18T09:27:58;100823.36;;;16.41;29.42
72024;BME280;59889;50.700;5.440;2022-12-18T09:30:23;100820.31;;;16.61;29.44
72024;BME280;59889;50.700;5.440;2022-12-18T09:32:48;100817.09;;;16.39;29.42
72024;BME280;59889;50.700;5.440;2022-12-18T09:35:14;100815.96;;;16.38;29.41
72024;BME280;59889;50.700;5.440;2022-12-18T09:37:39;100817.84;;;16.25;29.59
72024;BME280;59889;50.700;5.440;2022-12-18T09:40:05;100817.77;;;16.40;29.40
72024;BME280;59889;50.700;5.440;2022-12-18T09:42:29;100812.77;;;16.42;29.38
72024;BME280;59889;50.700;5.440;2022-12-18T09:44:54;100812.29;;;16.47;29.34
72024;BME280;59889;50.700;5.440;2022-12-18T09:47:23;100808.83;;;16.43;29.33
72024;BME280;59889;50.700;5.440;2022-12-18T09:49:47;100808.23;;;16.35;29.42
72024;BME280;59889;50.700;5.440;2022-12-18T09:52:15;100808.34;;;16.43;29.32
72024;BME280;59889;50.700;5.440;2022-12-18T09:54:39;100804.82;;;16.38;29.34
72024;BME280;59889;50.700;5.440;2022-12-18T09:57:01;100798.59;;;16.38;29.38
72024;BME280;59889;50.700;5.440;2022-12-18T09:59:30;100804.16;;;16.39;29.37
72024;BME280;59889;50.700;5.440;2022-12-18T10:01:51;100805.32;;;16.44;29.29
72024;BME280;59889;50.700;5.440;2022-12-18T10:04:16;100807.27;;;16.55;29.17
72024;BME280;59889;50.700;5.440;2022-12-18T10:06:46;100806.24;;;15.73;29.26
72024;BME280;59889;50.700;5.440;2022-12-18T10:09:11;100798.38;;;16.46;29.32
72024;BME280;59889;50.700;5.440;2022-12-18T10:11:40;100798.15;;;16.72;29.32
72024;BME280;59889;50.700;5.440;2022-12-18T10:14:02;100800.11;;;16.36;29.46
72024;BME280;59889;50.700;5.440;2022-12-18T10:16:26;100802.11;;;16.37;29.68
72024;BME280;59889;50.700;5.440;2022-12-18T10:19:01;100799.38;;;16.15;29.47
72024;BME280;59889;50.700;5.440;2022-12-18T10:21:16;100804.48;;;16.43;29.45
72024;BME280;59889;50.700;5.440;2022-12-18T10:23:42;100807.18;;;16.61;29.59
72024;BME280;59889;50.700;5.440;2022-12-18T10:26:05;100802.63;;;16.14;29.63
72024;BME280;59889;50.700;5.440;2022-12-18T10:28:30;100795.85;;;16.42;29.55
72024;BME280;59889;50.700;5.440;2022-12-18T10:30:53;100792.72;;;16.40;29.56
72024;BME280;59889;50.700;5.440;2022-12-18T10:33:21;100794.84;;;16.67;29.51
72024;BME280;59889;50.700;5.440;2022-12-18T10:35:45;100791.12;;;16.34;29.48
72024;BME280;59889;50.700;5.440;2022-12-18T10:38:21;100786.14;;;16.34;29.49
72024;BME280;59889;50.700;5.440;2022-12-18T10:43:10;100774.05;;;16.34;29.52
72024;BME280;59889;50.700;5.440;2022-12-18T10:45:27;100771.91;;;16.09;29.59
72024;BME280;59889;50.700;5.440;2022-12-18T10:47:53;100766.22;;;16.47;29.32
72024;BME280;59889;50.700;5.440;2022-12-18T10:50:20;100761.63;;;16.50;29.03
72024;BME280;59889;50.700;5.440;2022-12-18T10:52:53;100756.67;;;16.23;29.06
72024;BME280;59889;50.700;5.440;2022-12-18T10:55:16;100755.42;;;16.55;29.07
72024;BME280;59889;50.700;5.440;2022-12-18T10:57:37;100752.92;;;16.31;29.03
72024;BME280;59889;50.700;5.440;2022-12-18T11:02:33;100739.23;;;16.35;29.03
72024;BME280;59889;50.700;5.440;2022-12-18T11:04:53;100729.71;;;16.50;29.00
72024;BME280;59889;50.700;5.440;2022-12-18T11:07:18;100721.20;;;16.32;29.39
72024;BME280;59889;50.700;5.440;2022-12-18T11:09:43;100713.71;;;16.34;29.63
72024;BME280;59889;50.700;5.440;2022-12-18T11:12:14;100708.09;;;16.22;29.90
72024;BME280;59889;50.700;5.440;2022-12-18T11:14:42;100705.78;;;16.27;29.86
72024;BME280;59889;50.700;5.440;2022-12-18T11:17:00;100705.04;;;16.26;29.81
72024;BME280;59889;50.700;5.440;2022-12-18T11:19:31;100696.39;;;16.36;29.76
72024;BME280;59889;50.700;5.440;2022-12-18T11:21:51;100697.17;;;16.15;29.95
72024;BME280;59889;50.700;5.440;2022-12-18T11:24:21;100697.61;;;16.26;29.73
72024;BME280;59889;50.700;5.440;2022-12-18T11:26:42;100690.18;;;16.03;29.59
72024;BME280;59889;50.700;5.440;2022-12-18T11:29:09;100681.34;;;16.24;29.49
72024;BME280;59889;50.700;5.440;2022-12-18T11:31:33;100679.74;;;16.35;29.19
72024;BME280;59889;50.700;5.440;2022-12-18T11:34:02;100672.15;;;16.22;29.15
72024;BME280;59889;50.700;5.440;2022-12-18T11:36:23;100671.66;;;16.26;29.10
72024;BME280;59889;50.700;5.440;2022-12-18T11:38:51;100672.28;;;16.24;29.09
72024;BME280;59889;50.700;5.440;2022-12-18T11:41:21;100665.81;;;16.26;28.95
72024;BME280;59889;50.700;5.440;2022-12-18T11:43:44;100668.79;;;16.20;28.81
72024;BME280;59889;50.700;5.440;2022-12-18T11:46:08;100668.18;;;16.19;28.92
72024;BME280;59889;50.700;5.440;2022-12-18T11:48:36;100674.81;;;16.35;29.00
72024;BME280;59889;50.700;5.440;2022-12-18T11:50:58;100674.30;;;16.32;28.99
72024;BME280;59889;50.700;5.440;2022-12-18T11:53:22;100677.17;;;16.45;28.85
72024;BME280;59889;50.700;5.440;2022-12-18T11:55:54;100678.93;;;16.15;28.79
72024;BME280;59889;50.700;5.440;2022-12-18T11:58:18;100670.68;;;16.60;28.93
72024;BME280;59889;50.700;5.440;2022-12-18T12:00:43;100660.39;;;16.12;29.01
72024;BME280;59889;50.700;5.440;2022-12-18T12:05:40;100654.48;;;16.18;28.99
72024;BME280;59889;50.700;5.440;2022-12-18T12:07:59;100645.43;;;16.18;29.01
72024;BME280;59889;50.700;5.440;2022-12-18T12:10:31;100647.93;;;16.18;29.02
72024;BME280;59889;50.700;5.440;2022-12-18T12:12:57;100650.06;;;16.11;29.13
72024;BME280;59889;50.700;5.440;2022-12-18T12:15:20;100645.61;;;16.10;29.11
72024;BME280;59889;50.700;5.440;2022-12-18T12:17:40;100654.26;;;16.58;29.13
72024;BME280;59889;50.700;5.440;2022-12-18T12:20:06;100658.65;;;16.02;29.23
72024;BME280;59889;50.700;5.440;2022-12-18T12:22:34;100664.68;;;16.13;29.10
72024;BME280;59889;50.700;5.440;2022-12-18T12:25:02;100669.93;;;16.09;29.15
72024;BME280;59889;50.700;5.440;2022-12-18T12:27:24;100666.96;;;16.27;29.23
72024;BME280;59889;50.700;5.440;2022-12-18T12:29:52;100668.14;;;16.16;29.14
72024;BME280;59889;50.700;5.440;2022-12-18T12:32:21;100661.94;;;16.63;29.18
72024;BME280;59889;50.700;5.440;2022-12-18T12:34:38;100652.46;;;16.09;29.27
72024;BME280;59889;50.700;5.440;2022-12-18T12:37:09;100643.72;;;16.13;29.21
72024;BME280;59889;50.700;5.440;2022-12-18T12:39:30;100644.77;;;16.68;29.19
72024;BME280;59889;50.700;5.440;2022-12-18T12:41:51;100642.03;;;16.07;29.35
72024;BME280;59889;50.700;5.440;2022-12-18T12:44:20;100641.68;;;16.36;29.29
72024;BME280;59889;50.700;5.440;2022-12-18T12:46:42;100636.27;;;15.83;29.40